Time;durP1;ratioP1;P1;durP2;ratioP2;P2;SDS_P1;SDS_P2;PMS_P1;PMS_P2;Temp;Humidity;BMP_temperature;BMP_pressure;BME280_temperature;BME280_humidity;BME280_pressure;Samples;Min_cycle;Max_cycle;Signal;HPM_P1;HPM_P2
2023/08/13 00:01:50;;;;;;;3.15;2.85;;;;;;;21.05;68.28;65198.84;5052290;28;20232;-53
2023/08/13 00:04:15;;;;;;;3.20;2.83;;;;;;;20.94;67.73;65187.19;5052130;28;20265;-53
2023/08/13 00:06:41;;;;;;;5.30;2.83;;;;;;;20.93;68.35;65184.09;5052382;28;20262;-54
2023/08/13 00:09:06;;;;;;;3.70;2.63;;;;;;;20.84;69.22;65174.16;5052187;28;20201;-55
2023/08/13 00:11:32;;;;;;;4.45;2.70;;;;;;;20.79;70.96;65168.03;5052082;28;20680;-54
2023/08/13 00:13:58;;;;;;;3.67;2.83;;;;;;;20.84;71.05;65173.59;5051952;28;20189;-53
2023/08/13 00:16:24;;;;;;;3.20;2.72;;;;;;;20.87;69.71;65176.88;5052127;28;20253;-54
2023/08/13 00:18:49;;;;;;;4.22;2.70;;;;;;;20.88;70.25;65178.00;5052389;28;20620;-53
2023/08/13 00:21:15;;;;;;;3.63;2.45;;;;;;;20.99;70.08;65192.19;5051741;28;20213;-54
2023/08/13 00:23:40;;;;;;;2.75;2.50;;;;;;;21.06;69.24;65197.94;5051910;28;20201;-54
2023/08/13 00:26:06;;;;;;;3.97;3.13;;;;;;;21.03;69.10;65197.16;5033880;28;20267;-54
2023/08/13 00:28:31;;;;;;;3.70;2.67;;;;;;;20.92;70.05;65185.00;5051920;28;20255;-53
2023/08/13 00:30:57;;;;;;;3.50;2.78;;;;;;;20.88;70.01;65181.13;5051773;28;20213;-54
2023/08/13 00:33:22;;;;;;;3.97;2.70;;;;;;;20.87;70.19;65179.47;5051661;28;20236;-57
2023/08/13 00:35:51;;;;;;;5.03;2.72;;;;;;;20.73;71.43;65161.41;5051637;28;20197;-55
2023/08/13 00:38:16;;;;;;;2.70;2.50;;;;;;;20.63;72.37;65153.47;5051840;28;20304;-55
2023/08/13 00:40:42;;;;;;;3.10;2.80;;;;;;;20.66;73.07;65156.25;5051493;28;20696;-54
2023/08/13 00:43:08;;;;;;;5.43;2.53;;;;;;;20.55;72.83;65146.66;5052255;28;20201;-55
2023/08/13 00:45:35;;;;;;;3.38;2.85;;;;;;;20.49;73.97;65134.91;5051542;28;20212;-56
2023/08/13 00:48:01;;;;;;;6.28;2.72;;;;;;;20.41;74.40;65128.63;5051414;28;20251;-54
2023/08/13 00:50:28;;;;;;;3.63;3.05;;;;;;;20.36;75.30;65126.19;5051572;28;20266;-53
2023/08/13 00:52:54;;;;;;;3.50;2.38;;;;;;;20.28;75.88;65117.34;5051229;28;20221;-54
2023/08/13 00:55:20;;;;;;;4.35;3.00;;;;;;;20.21;76.89;65109.06;5051596;28;20216;-54
2023/08/13 00:57:46;;;;;;;5.75;2.92;;;;;;;20.35;76.77;65119.97;5033739;28;20217;-53
2023/08/13 01:00:13;;;;;;;6.72;3.10;;;;;;;20.31;77.34;65120.13;5051790;28;20300;-54
2023/08/13 01:02:39;;;;;;;5.30;3.00;;;;;;;20.21;78.22;65103.97;5051341;28;20217;-55
2023/08/13 01:05:07;;;;;;;4.07;2.80;;;;;;;20.14;79.87;65099.31;5051392;28;20213;-55
2023/08/13 01:07:58;;;;;;;5.80;3.28;;;;;;;20.00;80.68;65083.84;5051137;28;20684;-54
2023/08/13 01:10:33;;;;;;;3.78;3.47;;;;;;;19.94;82.31;65074.66;5051414;28;20180;-54
2023/08/13 01:13:21;;;;;;;4.28;3.28;;;;;;;19.90;83.39;65073.34;5051261;28;20221;-54
2023/08/13 01:15:48;;;;;;;3.85;3.42;;;;;;;19.72;85.06;65055.47;5050979;28;20294;-55
2023/08/13 01:18:16;;;;;;;3.95;3.20;;;;;;;19.67;85.71;65047.97;5051072;28;20200;-54
2023/08/13 01:20:43;;;;;;;3.85;2.80;;;;;;;19.64;86.55;65041.53;5051438;28;20213;-60
2023/08/13 01:23:09;;;;;;;4.85;3.03;;;;;;;19.67;86.64;65047.41;5033128;28;20523;-54
2023/08/13 01:25:35;;;;;;;6.03;3.50;;;;;;;19.47;88.31;65025.31;5051045;28;20199;-54
2023/08/13 01:28:18;;;;;;;4.57;3.85;;;;;;;19.38;88.19;65015.94;5050821;28;20271;-55
2023/08/13 01:30:52;;;;;;;3.58;3.22;;;;;;;19.30;89.23;65007.09;5051082;28;20174;-59
2023/08/13 01:33:26;;;;;;;3.53;3.17;;;;;;;19.13;89.34;64991.41;5050716;28;20220;-53
2023/08/13 01:35:56;;;;;;;6.32;3.28;;;;;;;19.20;88.20;64994.03;5050865;28;20246;-54
2023/08/13 01:38:23;;;;;;;4.15;2.92;;;;;;;19.04;88.23;64981.50;5032757;28;20252;-57
2023/08/13 01:40:50;;;;;;;5.32;3.85;;;;;;;18.81;89.80;64953.56;5051054;28;20289;-55
2023/08/13 01:43:16;;;;;;;3.65;3.30;;;;;;;18.92;89.29;64965.69;5050555;28;20225;-60
2023/08/13 01:45:42;;;;;;;3.80;3.33;;;;;;;18.78;89.99;64947.69;5032307;28;20730;-60
2023/08/13 01:48:08;;;;;;;6.25;3.92;;;;;;;18.94;88.74;64967.34;5050646;28;20235;-54
2023/08/13 01:50:33;;;;;;;4.00;3.60;;;;;;;18.87;89.96;64957.63;5051252;28;20212;-54
2023/08/13 01:52:58;;;;;;;5.45;3.60;;;;;;;18.88;90.12;64960.72;5050273;28;20691;-54
2023/08/13 01:55:24;;;;;;;3.80;3.45;;;;;;;18.80;91.15;64955.00;5050561;28;20220;-55
2023/08/13 01:57:49;;;;;;;4.35;3.80;;;;;;;18.66;91.90;64939.00;5050423;28;20232;-55
2023/08/13 02:00:15;;;;;;;5.88;3.63;;;;;;;18.81;91.10;64955.56;5050605;28;20661;-54
2023/08/13 02:02:40;;;;;;;3.78;3.20;;;;;;;18.66;93.83;64936.47;5050747;28;20883;-55
2023/08/13 02:05:07;;;;;;;4.60;3.53;;;;;;;18.66;93.53;64936.47;5032710;28;20200;-54
2023/08/13 02:07:33;;;;;;;3.72;3.20;;;;;;;18.62;93.88;64932.03;5050631;28;20252;-54
2023/08/13 02:09:59;;;;;;;3.97;3.58;;;;;;;18.61;94.01;64933.47;5050722;28;20201;-55
2023/08/13 02:12:25;;;;;;;3.83;3.53;;;;;;;18.63;93.13;64933.13;5050128;28;20225;-55
2023/08/13 02:14:51;;;;;;;4.15;3.13;;;;;;;18.73;92.28;64944.16;5050288;28;20197;-55
2023/08/13 02:17:16;;;;;;;3.78;3.45;;;;;;;18.89;90.81;64964.38;5050556;28;20248;-53
2023/08/13 02:19:42;;;;;;;4.95;3.67;;;;;;;18.76;91.33;64947.50;5050240;28;20198;-54
2023/08/13 02:22:08;;;;;;;4.93;3.60;;;;;;;18.77;92.46;64948.59;5050223;28;20206;-57
2023/08/13 02:24:33;;;;;;;3.70;3.30;;;;;;;18.61;93.89;64931.50;5049989;28;20209;-54
2023/08/13 02:26:59;;;;;;;3.55;3.22;;;;;;;18.68;92.20;64939.22;5049915;28;20212;-60
2023/08/13 02:29:25;;;;;;;4.20;3.80;;;;;;;18.64;91.97;64934.25;5050195;28;20316;-53
2023/08/13 02:31:50;;;;;;;3.30;2.70;;;;;;;18.60;92.51;64927.28;5049970;28;20220;-53
2023/08/13 02:34:15;;;;;;;5.05;3.58;;;;;;;18.64;92.28;64934.81;5049973;28;20271;-56
2023/08/13 02:36:41;;;;;;;3.45;2.95;;;;;;;18.59;92.39;64931.28;5049931;28;20620;-54
2023/08/13 02:39:07;;;;;;;4.20;2.90;;;;;;;18.52;93.12;64924.13;5050526;28;20259;-55
2023/08/13 02:41:32;;;;;;;5.10;3.20;;;;;;;18.52;93.27;64923.56;5050109;28;20570;-54
2023/08/13 02:43:58;;;;;;;3.03;2.72;;;;;;;18.59;92.07;64928.72;5049945;28;20284;-55
2023/08/13 02:46:25;;;;;;;2.97;2.78;;;;;;;18.59;91.76;64929.28;5050044;28;20580;-54
2023/08/13 02:48:55;;;;;;;4.65;2.90;;;;;;;18.58;91.11;64930.75;5049863;28;20221;-54
2023/08/13 02:51:21;;;;;;;3.72;2.63;;;;;;;18.55;91.27;64922.31;5050075;28;20234;-55
2023/08/13 02:53:47;;;;;;;2.83;2.50;;;;;;;18.55;90.85;64921.75;5049634;28;20308;-57
2023/08/13 02:56:12;;;;;;;2.88;2.58;;;;;;;18.55;90.78;64924.31;5050795;28;20205;-54
2023/08/13 02:58:39;;;;;;;2.92;2.63;;;;;;;18.51;89.77;64923.00;5053596;28;20208;-55
2023/08/13 03:01:05;;;;;;;3.67;2.40;;;;;;;18.48;90.41;64917.16;5053393;28;20213;-55
2023/08/13 03:03:31;;;;;;;7.95;3.08;;;;;;;18.47;89.74;64916.03;5053279;28;20205;-56
2023/08/13 03:05:58;;;;;;;2.80;2.60;;;;;;;18.47;89.89;64916.03;5053048;28;20715;-54
2023/08/13 03:08:24;;;;;;;2.60;2.40;;;;;;;18.48;89.51;64919.72;5053514;28;20205;-65
2023/08/13 03:10:50;;;;;;;7.18;3.08;;;;;;;18.46;89.56;64917.50;5053047;28;20209;-55
2023/08/13 03:13:16;;;;;;;2.80;2.60;;;;;;;18.50;89.34;64921.38;5053006;28;20611;-59
2023/08/13 03:15:42;;;;;;;3.88;2.72;;;;;;;18.46;89.12;64914.41;5052855;28;20525;-55
2023/08/13 03:18:07;;;;;;;3.72;2.97;;;;;;;18.33;90.48;64900.59;5052960;28;20203;-54
2023/08/13 03:20:34;;;;;;;4.28;2.20;;;;;;;18.52;88.29;64919.03;5053440;28;20194;-54
2023/08/13 03:22:59;;;;;;;3.53;2.67;;;;;;;18.40;89.08;64905.75;5052679;28;20216;-53
2023/08/13 03:25:25;;;;;;;2.90;2.60;;;;;;;18.33;89.36;64903.69;5052994;28;20580;-53
2023/08/13 03:27:51;;;;;;;3.08;2.55;;;;;;;18.34;91.49;64902.22;5053175;28;20582;-54
2023/08/13 03:30:17;;;;;;;2.90;2.70;;;;;;;18.35;92.14;64905.91;5052745;28;20280;-55
2023/08/13 03:32:42;;;;;;;3.00;2.70;;;;;;;18.39;91.07;64905.22;5052993;28;20597;-56
2023/08/13 03:35:08;;;;;;;2.97;2.40;;;;;;;18.22;91.87;64891.56;5052688;28;20205;-55
2023/08/13 03:37:34;;;;;;;6.40;3.20;;;;;;;18.31;91.92;64895.81;5052670;28;20597;-54
2023/08/13 03:40:00;;;;;;;4.75;2.45;;;;;;;18.26;91.75;64895.44;5052938;28;20328;-55
2023/08/13 03:42:25;;;;;;;2.97;2.63;;;;;;;18.30;92.22;64897.81;5052469;28;20355;-54
2023/08/13 03:44:51;;;;;;;3.03;2.80;;;;;;;18.22;92.64;64889.00;5052368;28;20276;-54
2023/08/13 03:47:16;;;;;;;5.28;2.90;;;;;;;18.11;93.30;64876.88;5052882;28;20232;-59
2023/08/13 03:49:42;;;;;;;5.65;2.78;;;;;;;17.95;94.50;64859.25;5052943;28;20660;-54
2023/08/13 03:52:09;;;;;;;3.08;2.53;;;;;;;17.86;95.65;64851.84;5052106;28;20348;-54
2023/08/13 03:54:35;;;;;;;3.25;2.92;;;;;;;17.86;94.99;64846.75;5052245;28;20273;-55
2023/08/13 03:57:00;;;;;;;3.33;3.03;;;;;;;17.81;95.76;64841.25;5052488;28;20335;-55
2023/08/13 03:59:26;;;;;;;4.15;3.30;;;;;;;17.85;95.86;64847.66;5052362;28;20193;-54
2023/08/13 04:01:52;;;;;;;3.42;2.55;;;;;;;17.93;95.04;64857.03;5034342;28;20614;-55
2023/08/13 04:04:17;;;;;;;5.47;2.92;;;;;;;18.21;93.25;64889.91;5052043;28;20688;-55
2023/08/13 04:06:43;;;;;;;3.30;3.00;;;;;;;18.23;93.02;64892.66;5051670;28;20210;-56
2023/08/13 04:09:09;;;;;;;3.17;2.88;;;;;;;18.28;92.90;64895.09;5052337;28;20271;-55
2023/08/13 04:11:35;;;;;;;3.28;2.97;;;;;;;18.22;92.89;64886.44;5051830;28;20208;-54
2023/08/13 04:14:00;;;;;;;3.63;2.60;;;;;;;18.21;92.60;64884.81;5052049;28;20205;-53
2023/08/13 04:16:27;;;;;;;4.68;2.88;;;;;;;18.12;93.49;64877.44;5052367;28;20751;-53
2023/08/13 04:18:52;;;;;;;5.53;3.17;;;;;;;18.27;92.52;64891.41;5052343;28;20682;-53
2023/08/13 04:21:18;;;;;;;3.58;3.28;;;;;;;18.17;93.30;64883.50;5051910;28;20209;-54
2023/08/13 04:23:44;;;;;;;3.63;2.95;;;;;;;18.38;92.21;64908.66;5051738;28;20212;-53
2023/08/13 04:26:10;;;;;;;3.03;2.83;;;;;;;18.19;93.42;64882.59;5051970;28;20209;-54
2023/08/13 04:28:36;;;;;;;4.22;2.80;;;;;;;18.14;94.65;64882.72;5051883;28;20228;-54
2023/08/13 04:31:02;;;;;;;5.72;3.42;;;;;;;18.09;94.88;64876.66;5051880;28;20652;-54
2023/08/13 04:33:27;;;;;;;5.88;4.03;;;;;;;17.88;96.39;64853.50;5051792;28;20212;-54
2023/08/13 04:35:54;;;;;;;9.63;5.30;;;;;;;17.44;100.00;64805.53;5051987;28;20656;-57
2023/08/13 04:38:23;;;;;;;7.30;5.53;;;;;;;17.27;100.00;64784.81;5051883;28;20202;-56
2023/08/13 04:40:49;;;;;;;8.93;6.03;;;;;;;17.31;100.00;64788.69;5051404;28;20254;-57
2023/08/13 04:43:15;;;;;;;7.03;5.18;;;;;;;17.41;100.00;64799.69;5051559;28;20213;-55
2023/08/13 04:45:45;;;;;;;5.32;4.53;;;;;;;17.63;100.00;64827.06;5051789;28;20201;-53
2023/08/13 04:48:10;;;;;;;6.95;5.28;;;;;;;17.75;100.00;64837.19;5052095;28;20204;-54
2023/08/13 04:50:36;;;;;;;5.63;5.00;;;;;;;17.83;100.00;64846.00;5051402;28;20214;-58
2023/08/13 04:53:02;;;;;;;11.07;5.40;;;;;;;17.75;100.00;64837.19;5040875;22;20236;-53
2023/08/13 04:55:28;;;;;;;4.82;4.30;;;;;;;17.62;100.00;64825.41;5031915;28;20724;-54
2023/08/13 04:57:53;;;;;;;6.85;4.50;;;;;;;17.57;100.00;64817.34;5049456;28;20263;-54
2023/08/13 05:00:19;;;;;;;7.93;5.03;;;;;;;17.54;100.00;64811.50;5033331;28;20182;-55
2023/08/13 05:02:44;;;;;;;9.63;5.90;;;;;;;17.67;100.00;64828.38;5051671;28;20270;-54
2023/08/13 05:05:10;;;;;;;8.20;5.18;;;;;;;17.86;100.00;64848.75;5051193;28;20609;-53
2023/08/13 05:07:35;;;;;;;6.38;4.60;;;;;;;18.02;99.50;64868.94;5051287;28;20224;-54
2023/08/13 05:10:01;;;;;;;6.50;5.03;;;;;;;18.40;97.17;64905.75;5051167;28;20290;-53
2023/08/13 05:12:27;;;;;;;7.03;4.65;;;;;;;18.34;97.64;64899.69;5051353;28;20727;-55
2023/08/13 05:14:53;;;;;;;5.57;4.30;;;;;;;18.40;97.46;64906.28;5050922;28;20293;-56
2023/08/13 05:17:20;;;;;;;7.28;5.13;;;;;;;18.42;97.73;64911.06;5050895;28;20213;-53
2023/08/13 05:19:46;;;;;;;6.50;4.82;;;;;;;18.46;97.42;64914.41;5049938;28;20251;-55
2023/08/13 05:22:12;;;;;;;11.30;4.75;;;;;;;18.61;96.78;64928.38;5051134;28;20212;-57
2023/08/13 05:24:38;;;;;;;7.80;4.68;;;;;;;18.53;96.21;64920.13;5051595;28;20553;-54
2023/08/13 05:27:05;;;;;;;7.43;4.45;;;;;;;18.36;95.98;64907.00;5032761;28;20244;-54
2023/08/13 05:29:30;;;;;;;9.27;4.60;;;;;;;18.53;95.36;64922.66;5050626;28;20336;-56
2023/08/13 05:31:56;;;;;;;5.72;4.57;;;;;;;18.47;96.32;64916.03;5058116;22;20783;-55
2023/08/13 05:34:21;;;;;;;5.20;4.70;;;;;;;18.46;96.86;64911.84;5051011;28;20730;-54
2023/08/13 05:36:47;;;;;;;6.32;4.13;;;;;;;18.56;95.83;64925.44;5050632;28;20197;-54
2023/08/13 05:39:13;;;;;;;4.50;4.10;;;;;;;18.62;94.40;64932.59;5032538;28;20599;-56
2023/08/13 05:41:39;;;;;;;5.82;4.15;;;;;;;18.80;94.41;64954.47;5049315;28;20213;-54
2023/08/13 05:44:05;;;;;;;5.07;4.57;;;;;;;18.93;93.62;64968.78;5050855;28;20701;-54
2023/08/13 05:46:30;;;;;;;5.82;4.07;;;;;;;19.15;91.94;64993.06;5050585;28;20217;-55
2023/08/13 05:48:56;;;;;;;8.45;4.40;;;;;;;19.35;90.42;65012.63;5050550;28;20201;-54
2023/08/13 05:51:22;;;;;;;5.10;3.80;;;;;;;19.36;92.34;65010.63;5050509;28;20559;-55
2023/08/13 05:53:48;;;;;;;4.32;3.88;;;;;;;19.60;88.70;65037.66;5050778;28;20239;-53
2023/08/13 05:56:13;;;;;;;8.32;3.88;;;;;;;19.57;89.06;65034.38;5050044;28;20736;-54
2023/08/13 05:58:39;;;;;;;5.80;3.53;;;;;;;19.58;88.63;65037.47;5050078;28;20201;-55
2023/08/13 06:01:04;;;;;;;5.22;3.90;;;;;;;19.57;87.50;65036.94;5050106;28;20220;-55
2023/08/13 06:03:30;;;;;;;4.78;3.58;;;;;;;19.85;84.36;65070.41;5050572;28;20284;-55
2023/08/13 06:05:56;;;;;;;4.47;3.33;;;;;;;19.90;82.09;65070.25;5050128;28;21610;-54
2023/08/13 06:08:22;;;;;;;5.63;3.85;;;;;;;19.98;82.83;65079.63;5050325;28;20201;-53
2023/08/13 06:10:47;;;;;;;4.07;3.50;;;;;;;19.89;84.50;65074.81;5050328;28;20706;-53
2023/08/13 06:13:13;;;;;;;6.20;3.88;;;;;;;20.06;83.44;65090.47;5050272;28;20339;-54
2023/08/13 06:15:39;;;;;;;5.70;3.58;;;;;;;19.90;83.75;65073.34;5049888;28;20193;-55
2023/08/13 06:18:05;;;;;;;6.55;3.58;;;;;;;19.95;83.48;65075.78;5049934;28;20217;-53
2023/08/13 06:20:31;;;;;;;8.63;3.88;;;;;;;20.08;82.37;65093.25;5050440;28;20204;-53
2023/08/13 06:22:57;;;;;;;6.57;4.25;;;;;;;20.07;82.42;65091.59;5050399;28;20718;-55
2023/08/13 06:25:23;;;;;;;5.75;3.95;;;;;;;20.12;81.95;65099.13;5049878;28;20732;-54
2023/08/13 06:27:48;;;;;;;4.45;4.00;;;;;;;20.07;79.88;65089.59;5050137;28;20300;-52
2023/08/13 06:30:14;;;;;;;7.57;4.53;;;;;;;20.29;79.54;65115.34;5049701;28;20238;-53
2023/08/13 06:32:39;;;;;;;5.13;4.03;;;;;;;20.32;79.66;65116.66;5049950;28;20225;-52
2023/08/13 06:35:06;;;;;;;4.65;3.72;;;;;;;20.33;79.39;65119.78;5049881;28;20317;-52
2023/08/13 06:37:32;;;;;;;5.28;3.80;;;;;;;20.37;77.02;65121.63;5050091;28;20256;-52
2023/08/13 06:39:58;;;;;;;6.90;4.03;;;;;;;20.53;77.42;65142.44;5031879;28;20201;-55
2023/08/13 06:42:23;;;;;;;3.90;3.47;;;;;;;20.75;75.76;65166.19;5049847;28;20228;-52
2023/08/13 06:44:49;;;;;;;4.25;3.47;;;;;;;20.99;71.19;65190.16;5049557;28;20689;-54
2023/08/13 06:47:15;;;;;;;4.15;3.33;;;;;;;20.89;72.81;65181.66;5049958;28;20679;-53
2023/08/13 06:49:40;;;;;;;4.25;3.85;;;;;;;21.03;73.08;65194.06;5050048;28;20686;-57
2023/08/13 06:52:06;;;;;;;3.78;2.88;;;;;;;21.07;71.36;65201.59;5049793;28;20568;-53
2023/08/13 06:54:32;;;;;;;4.70;3.50;;;;;;;20.99;71.01;65192.72;5049632;28;20634;-57
2023/08/13 06:56:58;;;;;;;4.85;4.35;;;;;;;21.31;70.47;65225.56;5049509;28;20213;-54
2023/08/13 06:59:23;;;;;;;5.03;3.30;;;;;;;21.43;68.85;65241.41;5048179;28;20193;-53
2023/08/13 07:01:49;;;;;;;4.53;3.70;;;;;;;21.55;68.45;65254.13;5049310;28;20209;-54
2023/08/13 07:04:15;;;;;;;5.90;3.53;;;;;;;21.52;68.65;65248.78;5049321;28;20632;-53
2023/08/13 07:06:40;;;;;;;4.93;3.67;;;;;;;21.61;68.35;65261.31;5049485;28;20213;-53
2023/08/13 07:09:06;;;;;;;3.70;3.20;;;;;;;21.90;64.59;65289.75;5031528;28;20765;-57
2023/08/13 07:11:32;;;;;;;3.55;2.88;;;;;;;21.98;63.77;65296.59;5049517;28;20300;-55
2023/08/13 07:13:58;;;;;;;6.68;3.58;;;;;;;22.06;62.03;65308.00;5049337;28;20209;-54
2023/08/13 07:16:24;;;;;;;4.95;3.50;;;;;;;22.13;62.99;65317.78;5049332;28;20240;-53
2023/08/13 07:18:49;;;;;;;4.57;3.58;;;;;;;22.11;64.42;65310.41;5049804;28;20628;-53
2023/08/13 07:21:15;;;;;;;6.65;3.50;;;;;;;22.34;62.52;65341.03;5049227;28;20245;-52
2023/08/13 07:23:40;;;;;;;6.70;3.50;;;;;;;22.52;60.93;65361.50;5049063;28;20639;-52
2023/08/13 07:26:06;;;;;;;3.45;3.15;;;;;;;22.56;60.92;65363.34;5049212;28;20221;-53
2023/08/13 07:28:35;;;;;;;5.13;3.80;;;;;;;22.73;61.43;65381.63;5031529;28;20301;-52
2023/08/13 07:31:05;;;;;;;6.38;3.72;;;;;;;22.85;62.36;65392.34;5048962;28;20771;-53
2023/08/13 07:33:31;;;;;;;4.78;3.20;;;;;;;23.15;58.89;65427.59;5049320;28;20244;-62
2023/08/13 07:36:01;;;;;;;9.32;3.40;;;;;;;23.18;59.34;65431.50;5049232;28;20209;-55
2023/08/13 07:38:27;;;;;;;6.70;4.75;;;;;;;23.36;60.57;65450.91;5049046;28;20668;-52
2023/08/13 07:40:56;;;;;;;8.80;3.53;;;;;;;23.53;57.00;65471.75;5048916;28;20204;-53
2023/08/13 07:43:23;;;;;;;4.22;3.10;;;;;;;23.64;57.00;65481.34;5051499;28;20198;-57
2023/08/13 07:45:50;;;;;;;4.07;3.47;;;;;;;23.83;56.46;65503.00;5052196;28;20202;-54
2023/08/13 07:48:16;;;;;;;4.65;2.83;;;;;;;23.84;55.96;65501.50;5052463;28;20193;-53
2023/08/13 07:50:41;;;;;;;4.75;3.42;;;;;;;23.98;53.50;65519.03;5052646;28;20208;-53
2023/08/13 07:53:07;;;;;;;3.78;3.40;;;;;;;23.90;54.76;65510.75;5052258;28;20217;-52
2023/08/13 07:55:33;;;;;;;3.58;2.92;;;;;;;23.99;56.69;65525.31;5052070;28;20247;-53
2023/08/13 07:57:58;;;;;;;7.97;3.40;;;;;;;23.99;55.05;65520.16;5052011;28;20215;-53
2023/08/13 08:00:24;;;;;;;3.53;3.15;;;;;;;23.95;56.32;65518.31;5052396;28;20643;-54
2023/08/13 08:02:50;;;;;;;5.70;3.35;;;;;;;24.15;55.08;65538.47;5052016;28;20655;-53
2023/08/13 08:05:16;;;;;;;2.92;2.72;;;;;;;24.40;54.63;65559.94;5034127;28;20209;-54
2023/08/13 08:07:49;;;;;;;4.90;3.15;;;;;;;24.61;54.17;65588.38;5052105;28;20313;-54
2023/08/13 08:10:15;;;;;;;3.58;3.20;;;;;;;24.41;53.84;65564.19;5051986;28;20311;-53
2023/08/13 08:12:40;;;;;;;4.55;3.67;;;;;;;24.74;52.75;65603.38;5051779;28;20252;-53
2023/08/13 08:15:06;;;;;;;4.18;2.95;;;;;;;24.60;53.52;65587.28;5051996;28;20237;-52
2023/08/13 08:17:33;;;;;;;5.10;3.15;;;;;;;24.79;52.75;65606.34;5052400;28;20652;-54
2023/08/13 08:19:59;;;;;;;3.17;2.88;;;;;;;24.91;51.99;65622.22;5051951;28;20255;-53
2023/08/13 08:22:26;;;;;;;4.30;3.40;;;;;;;25.08;52.31;65640.00;5033881;28;20259;-53
2023/08/13 08:24:53;;;;;;;4.13;2.85;;;;;;;25.25;51.58;65658.84;5051749;28;20210;-53
2023/08/13 08:27:19;;;;;;;4.35;2.85;;;;;;;25.31;54.23;65662.94;5059242;22;20320;-53
2023/08/13 08:29:44;;;;;;;3.95;2.70;;;;;;;25.46;52.87;65682.19;5051826;28;20292;-51
2023/08/13 08:32:09;;;;;;;3.63;2.83;;;;;;;25.36;52.08;65671.63;5033578;28;20787;-52
2023/08/13 08:34:35;;;;;;;3.40;2.88;;;;;;;25.66;51.26;65704.94;5051679;28;20197;-51
2023/08/13 08:37:01;;;;;;;4.57;2.95;;;;;;;25.35;49.96;65670.50;5051869;28;20222;-52
2023/08/13 08:39:26;;;;;;;3.38;2.67;;;;;;;25.65;48.52;65703.28;5051487;28;20198;-50
2023/08/13 08:41:55;;;;;;;3.63;3.17;;;;;;;25.85;49.55;65722.34;5051978;28;20220;-54
2023/08/13 08:44:22;;;;;;;4.13;2.60;;;;;;;25.98;49.86;65739.91;5033692;28;20193;-51
2023/08/13 08:46:49;;;;;;;5.18;2.85;;;;;;;26.10;50.51;65753.25;5051261;28;20209;-51
2023/08/13 08:49:17;;;;;;;4.30;3.05;;;;;;;26.22;49.85;65766.59;5051839;28;20348;-50
2023/08/13 08:51:43;;;;;;;4.25;3.20;;;;;;;26.33;49.57;65776.22;5051611;28;20210;-55
2023/08/13 08:54:09;;;;;;;2.65;2.45;;;;;;;26.37;48.13;65782.69;5051246;28;20205;-52
2023/08/13 08:56:34;;;;;;;4.20;2.45;;;;;;;26.43;47.02;65787.34;5051426;28;20296;-51
2023/08/13 08:58:59;;;;;;;3.20;2.90;;;;;;;26.46;46.89;65792.72;5051407;28;20281;-50
2023/08/13 09:01:25;;;;;;;5.78;2.88;;;;;;;26.27;46.56;65769.00;5051303;28;20688;-50
2023/08/13 09:03:51;;;;;;;3.60;2.72;;;;;;;26.41;44.55;65787.16;5051797;28;20696;-50
2023/08/13 09:06:17;;;;;;;3.28;2.53;;;;;;;26.36;44.53;65781.59;5051462;28;20205;-51
2023/08/13 09:08:42;;;;;;;4.15;2.80;;;;;;;26.38;45.60;65781.78;5051080;28;20335;-50
2023/08/13 09:11:09;;;;;;;4.93;2.60;;;;;;;26.18;44.60;65759.03;5032958;28;20245;-51
2023/08/13 09:13:35;;;;;;;3.17;2.33;;;;;;;26.64;45.60;65815.84;5050803;28;20198;-50
2023/08/13 09:16:00;;;;;;;3.83;2.63;;;;;;;26.75;42.33;65824.94;5050930;28;20279;-51
2023/08/13 09:18:26;;;;;;;4.60;2.58;;;;;;;26.84;43.92;65834.94;5050940;28;20202;-52
2023/08/13 09:20:51;;;;;;;2.60;2.40;;;;;;;27.01;43.81;65850.69;5050906;28;20299;-52
2023/08/13 09:23:24;;;;;;;3.08;2.67;;;;;;;27.25;44.90;65879.97;5051238;28;20197;-52
2023/08/13 09:25:53;;;;;;;2.40;2.20;;;;;;;27.61;42.84;65916.88;5050980;28;20208;-51
2023/08/13 09:28:19;;;;;;;2.38;2.17;;;;;;;27.74;41.62;65931.31;5050737;28;20236;-51
2023/08/13 09:30:45;;;;;;;2.80;2.60;;;;;;;27.57;42.29;65910.38;5032932;28;20228;-51
2023/08/13 09:33:14;;;;;;;4.00;2.75;;;;;;;27.77;44.25;65934.66;5033212;28;20222;-50
2023/08/13 09:35:44;;;;;;;3.22;2.70;;;;;;;27.76;43.27;65936.13;5050450;28;20216;-52
2023/08/13 09:38:11;;;;;;;3.28;2.97;;;;;;;27.26;44.83;65881.06;5032676;28;20267;-54
2023/08/13 09:40:37;;;;;;;6.05;2.88;;;;;;;26.63;43.51;65811.59;5050645;28;20735;-51
2023/08/13 09:43:09;;;;;;;3.67;2.67;;;;;;;26.60;44.49;65808.25;5050700;28;20209;-54
2023/08/13 09:45:35;;;;;;;3.25;2.95;;;;;;;26.91;44.39;65842.16;5032546;28;20639;-50
2023/08/13 09:48:06;;;;;;;10.45;7.88;;;;;;;26.66;45.81;65814.94;5050145;28;20213;-50
2023/08/13 09:50:39;;;;;;;3.78;3.10;;;;;;;25.93;45.70;65733.81;5050880;28;20209;-51
2023/08/13 09:53:08;;;;;;;2.70;2.50;;;;;;;25.71;46.74;65709.94;5032620;28;20221;-51
2023/08/13 09:55:39;;;;;;;4.05;3.70;;;;;;;25.96;47.05;65734.56;5050311;28;20197;-52
2023/08/13 09:58:08;;;;;;;4.03;3.10;;;;;;;26.14;47.66;65754.56;5032469;28;20257;-50
2023/08/13 10:00:34;;;;;;;3.67;3.00;;;;;;;26.32;48.25;65777.16;5050931;28;20196;-50
2023/08/13 10:03:01;;;;;;;3.53;3.05;;;;;;;26.67;47.12;65815.47;5049944;28;20310;-50
2023/08/13 10:05:29;;;;;;;5.68;3.15;;;;;;;27.37;46.57;65891.28;5049811;28;20162;-50
2023/08/13 10:07:57;;;;;;;3.70;3.40;;;;;;;27.51;46.82;65905.75;5049827;28;20314;-51
2023/08/13 10:10:24;;;;;;;3.42;2.97;;;;;;;27.33;45.82;65888.88;5050295;28;20205;-50
2023/08/13 10:12:58;;;;;;;3.35;2.95;;;;;;;26.78;45.81;65828.28;5050297;28;20217;-50
2023/08/13 10:15:23;;;;;;;4.07;3.10;;;;;;;26.86;44.89;65836.63;5050106;28;20208;-49
2023/08/13 10:17:51;;;;;;;3.45;2.70;;;;;;;26.62;45.70;65810.47;5050146;28;20290;-53
2023/08/13 10:20:18;;;;;;;3.58;3.25;;;;;;;27.23;44.75;65880.88;5049906;28;20297;-50
2023/08/13 10:22:46;;;;;;;4.45;2.90;;;;;;;27.77;43.63;65937.25;5050229;28;20221;-50
2023/08/13 10:25:27;;;;;;;3.47;3.08;;;;;;;28.40;42.29;66004.22;5049981;28;20300;-51
2023/08/13 10:27:56;;;;;;;6.78;2.95;;;;;;;28.58;41.86;66024.28;5050442;28;20201;-50
2023/08/13 10:30:22;;;;;;;6.07;3.65;;;;;;;28.93;41.42;66065.81;5049860;28;20232;-50
2023/08/13 10:32:54;;;;;;;3.45;3.15;;;;;;;29.28;40.14;66099.06;5050094;28;20249;-49
2023/08/13 10:35:23;;;;;;;8.32;4.95;;;;;;;29.05;40.49;66076.56;5050014;28;20217;-52
2023/08/13 10:37:52;;;;;;;3.25;2.95;;;;;;;29.08;40.85;66079.94;5050013;28;20297;-55
2023/08/13 10:40:19;;;;;;;3.88;3.10;;;;;;;28.70;40.90;66040.22;5050382;28;20201;-55
2023/08/13 10:42:50;;;;;;;4.22;3.45;;;;;;;28.61;41.98;66030.75;5050277;28;20220;-52
2023/08/13 10:45:20;;;;;;;4.18;3.78;;;;;;;29.23;41.75;66096.63;5049733;28;20202;-51
2023/08/13 10:47:53;;;;;;;6.43;4.20;;;;;;;28.98;41.95;66068.78;5049497;28;20209;-52
2023/08/13 10:50:25;;;;;;;4.00;3.33;;;;;;;29.00;42.51;66071.03;5049961;28;20200;-49
2023/08/13 10:52:54;;;;;;;3.55;3.25;;;;;;;29.49;42.06;66125.59;5049523;28;20217;-58
2023/08/13 10:55:24;;;;;;;3.38;3.08;;;;;;;28.68;43.48;66035.41;5049779;28;20201;-51
2023/08/13 10:57:52;;;;;;;3.45;3.13;;;;;;;28.35;42.53;65998.66;5049710;28;20232;-55
2023/08/13 11:00:22;;;;;;;4.97;3.40;;;;;;;27.75;44.69;65935.59;5049527;28;20644;-51
2023/08/13 11:03:21;;;;;;;4.05;3.15;;;;;;;28.40;43.53;66004.22;5050122;28;20339;-50
2023/08/13 11:05:48;;;;;;;6.75;3.15;;;;;;;29.04;41.69;66076.03;5029584;28;20221;-55
2023/08/13 11:08:21;;;;;;;5.65;3.20;;;;;;;28.75;42.72;66043.19;5049548;28;20193;-51
2023/08/13 11:10:47;;;;;;;3.10;2.90;;;;;;;28.49;42.65;66014.78;5049670;28;20243;-51
2023/08/13 11:13:14;;;;;;;4.13;3.22;;;;;;;28.42;42.55;66007.00;5049487;28;20275;-51
2023/08/13 11:15:48;;;;;;;7.90;3.35;;;;;;;28.10;43.24;65968.78;5049403;28;20276;-50
2023/08/13 11:18:13;;;;;;;5.45;3.58;;;;;;;28.13;43.31;65977.31;5052027;28;20263;-50
2023/08/13 11:20:39;;;;;;;3.83;3.47;;;;;;;27.82;44.38;65938.19;5051554;28;20609;-49
2023/08/13 11:23:05;;;;;;;3.47;3.17;;;;;;;27.89;45.40;65948.56;5052722;28;20254;-51
2023/08/13 11:25:31;;;;;;;3.30;3.00;;;;;;;27.88;44.07;65950.03;5052650;28;20204;-51
2023/08/13 11:27:56;;;;;;;3.35;3.15;;;;;;;27.49;45.21;65901.50;5052616;28;20278;-53
2023/08/13 11:30:22;;;;;;;3.42;3.13;;;;;;;27.05;45.91;65855.16;5053132;28;20204;-52
2023/08/13 11:32:47;;;;;;;3.17;2.97;;;;;;;27.19;46.42;65873.84;5034389;28;20221;-51